createdAt,value
2023-03-31T00:01:04.492Z,10.46
2023-03-31T00:03:34.165Z,10.40
2023-03-31T00:06:02.251Z,10.31
2023-03-31T00:08:35.485Z,10.30
2023-03-31T00:11:05.232Z,10.36
2023-03-31T00:13:33.153Z,10.40
2023-03-31T00:16:03.327Z,10.43
2023-03-31T00:18:31.534Z,10.38
2023-03-31T00:21:08.225Z,10.40
2023-03-31T00:23:37.474Z,10.40
2023-03-31T00:26:06.186Z,10.41
2023-03-31T00:28:34.241Z,10.35
2023-03-31T00:31:03.166Z,10.36
2023-03-31T00:33:31.287Z,10.30
2023-03-31T00:36:02.074Z,10.24
2023-03-31T00:38:31.273Z,10.22
2023-03-31T00:41:01.893Z,10.24
2023-03-31T00:43:32.299Z,10.24
2023-03-31T00:46:15.509Z,10.24
2023-03-31T00:48:48.766Z,10.25
2023-03-31T00:51:17.642Z,10.23
2023-03-31T00:53:52.005Z,10.27
2023-03-31T00:56:21.685Z,10.38
2023-03-31T00:58:49.832Z,10.65
2023-03-31T01:01:22.199Z,10.75
2023-03-31T01:03:50.405Z,10.86
2023-03-31T01:06:20.678Z,11.00
2023-03-31T01:08:51.157Z,11.25
2023-03-31T01:11:23.097Z,11.34
2023-03-31T01:13:56.041Z,11.67
2023-03-31T01:16:24.262Z,11.77
2023-03-31T01:18:52.242Z,11.76
2023-03-31T01:21:47.145Z,11.86
2023-03-31T01:24:54.394Z,12.08
2023-03-31T01:27:50.913Z,12.10
2023-03-31T01:30:45.970Z,12.32
2023-03-31T01:33:54.091Z,12.22
2023-03-31T01:36:47.528Z,12.17
2023-03-31T01:39:57.783Z,12.26
2023-03-31T01:42:35.106Z,12.27
2023-03-31T01:45:16.572Z,12.31
2023-03-31T01:47:49.637Z,12.36
2023-03-31T01:50:25.700Z,12.27
2023-03-31T01:53:03.175Z,12.26
2023-03-31T01:55:36.816Z,12.37
2023-03-31T01:58:13.059Z,12.51
2023-03-31T02:00:46.887Z,12.35
2023-03-31T02:03:19.200Z,12.30
2023-03-31T02:05:53.711Z,12.15
2023-03-31T02:08:25.376Z,12.15
2023-03-31T02:10:54.530Z,12.18
2023-03-31T02:13:27.038Z,12.16
2023-03-31T02:15:59.789Z,12.14
2023-03-31T02:18:33.197Z,12.05
2023-03-31T02:21:03.388Z,12.07
2023-03-31T02:23:33.960Z,11.96
2023-03-31T02:26:06.113Z,11.84
2023-03-31T02:28:36.078Z,11.88
2023-03-31T02:31:14.549Z,11.77
2023-03-31T02:33:42.521Z,11.79
2023-03-31T02:36:11.283Z,11.68
2023-03-31T02:38:44.495Z,11.63
2023-03-31T02:41:12.563Z,11.64
2023-03-31T02:43:41.738Z,11.77
2023-03-31T02:46:09.946Z,11.72
2023-03-31T02:48:41.995Z,11.76
2023-03-31T02:51:46.834Z,11.62
2023-03-31T02:54:39.628Z,11.59
2023-03-31T02:57:27.170Z,11.59
2023-03-31T03:00:08.274Z,11.56
2023-03-31T03:02:53.304Z,11.61
2023-03-31T03:05:34.886Z,11.94
2023-03-31T03:08:31.072Z,11.78
2023-03-31T03:11:11.107Z,11.73
2023-03-31T03:13:48.146Z,11.70
2023-03-31T03:16:24.637Z,11.71
2023-03-31T03:19:01.149Z,11.68
2023-03-31T03:21:29.536Z,11.61
2023-03-31T03:23:57.605Z,11.72
2023-03-31T03:26:28.053Z,11.75
2023-03-31T03:28:56.701Z,11.85
2023-03-31T03:31:26.260Z,11.79
2023-03-31T03:33:55.537Z,11.66
2023-03-31T03:36:23.769Z,11.67
2023-03-31T03:38:51.691Z,11.62
2023-03-31T03:41:19.521Z,11.69
2023-03-31T03:43:47.530Z,11.57
2023-03-31T03:46:15.538Z,11.62
2023-03-31T03:48:44.902Z,11.54
2023-03-31T03:51:13.556Z,11.43
2023-03-31T03:53:41.320Z,11.38
2023-03-31T03:56:08.954Z,11.32
2023-03-31T03:58:36.686Z,11.32
2023-03-31T04:01:04.936Z,11.27
2023-03-31T04:03:32.750Z,11.24
2023-03-31T04:06:02.350Z,11.26
2023-03-31T04:08:30.246Z,11.36
2023-03-31T04:10:58.138Z,11.40
2023-03-31T04:13:26.423Z,11.39
2023-03-31T04:15:54.329Z,11.43
2023-03-31T04:18:23.894Z,11.41
2023-03-31T04:20:54.802Z,11.33
2023-03-31T04:23:26.549Z,11.43
2023-03-31T04:25:54.402Z,11.50
2023-03-31T04:28:22.645Z,11.53
2023-03-31T04:30:51.168Z,11.36
2023-03-31T04:33:19.012Z,11.35
2023-03-31T04:35:50.865Z,11.39
2023-03-31T04:38:19.681Z,11.42
2023-03-31T04:40:51.182Z,11.52
2023-03-31T04:43:20.211Z,11.50
2023-03-31T04:45:48.630Z,11.58
2023-03-31T04:48:16.657Z,11.38
2023-03-31T04:50:44.811Z,11.28
2023-03-31T04:53:12.781Z,11.13
2023-03-31T04:55:40.618Z,11.08
2023-03-31T04:58:09.789Z,11.24
2023-03-31T05:00:37.895Z,11.25
2023-03-31T05:03:06.672Z,11.35
2023-03-31T05:05:34.503Z,11.12
2023-03-31T05:08:02.201Z,10.96
2023-03-31T05:10:30.602Z,10.93
2023-03-31T05:12:59.003Z,11.05
2023-03-31T05:15:28.568Z,10.93
2023-03-31T05:17:56.341Z,11.16
2023-03-31T05:20:25.257Z,11.13
2023-03-31T05:22:53.955Z,10.97
2023-03-31T05:25:22.593Z,10.90
2023-03-31T05:27:51.210Z,10.81
2023-03-31T05:30:19.644Z,10.78
2023-03-31T05:32:48.748Z,10.87
2023-03-31T05:35:16.426Z,11.01
2023-03-31T05:37:44.658Z,10.79
2023-03-31T05:40:13.504Z,10.49
2023-03-31T05:42:41.777Z,10.52
2023-03-31T05:45:10.429Z,10.67
2023-03-31T05:47:38.132Z,10.44
2023-03-31T05:50:09.613Z,10.39
2023-03-31T05:52:37.706Z,10.37
2023-03-31T05:55:06.327Z,10.50
2023-03-31T05:57:34.494Z,10.45
2023-03-31T06:00:02.740Z,10.65
2023-03-31T06:02:32.141Z,10.61
2023-03-31T06:05:00.002Z,10.72
2023-03-31T06:07:29.375Z,10.65
2023-03-31T06:09:57.852Z,10.57
2023-03-31T06:12:25.729Z,10.47
2023-03-31T06:14:54.027Z,10.53
2023-03-31T06:17:21.740Z,10.58
2023-03-31T06:19:49.450Z,10.53
2023-03-31T06:22:17.251Z,10.35
2023-03-31T06:24:46.364Z,10.40
2023-03-31T06:27:14.190Z,10.34
2023-03-31T06:29:42.335Z,10.38
2023-03-31T06:32:11.615Z,10.39
2023-03-31T06:34:40.348Z,10.42
2023-03-31T06:37:08.073Z,10.60
2023-03-31T06:39:36.228Z,10.68
2023-03-31T06:42:05.434Z,10.61
2023-03-31T06:44:40.083Z,10.76
2023-03-31T06:47:07.975Z,10.71
2023-03-31T06:49:35.769Z,10.80
2023-03-31T06:52:06.636Z,10.83
2023-03-31T06:54:38.391Z,10.77
2023-03-31T06:57:07.773Z,10.73
2023-03-31T06:59:37.965Z,10.93
2023-03-31T07:02:06.260Z,10.80
2023-03-31T07:04:34.186Z,10.88
2023-03-31T07:07:02.047Z,10.92
2023-03-31T07:09:29.805Z,10.86
2023-03-31T07:11:57.613Z,10.95
2023-03-31T07:14:27.619Z,11.09
2023-03-31T07:16:56.095Z,10.99
2023-03-31T07:19:23.891Z,10.91
2023-03-31T07:21:53.112Z,10.71
2023-03-31T07:24:21.676Z,10.64
2023-03-31T07:26:50.244Z,10.56
2023-03-31T07:29:18.156Z,10.42
2023-03-31T07:31:49.518Z,10.31
2023-03-31T07:34:17.531Z,10.31
2023-03-31T07:36:45.389Z,10.28
2023-03-31T07:39:13.633Z,10.52
2023-03-31T07:41:41.732Z,10.61
2023-03-31T07:44:10.366Z,10.32
2023-03-31T07:46:38.315Z,10.15
2023-03-31T07:49:07.885Z,10.49
2023-03-31T07:51:35.752Z,10.49
2023-03-31T07:54:03.757Z,10.52
2023-03-31T07:56:31.536Z,10.41
2023-03-31T07:58:59.182Z,10.25
2023-03-31T08:01:28.857Z,10.33
2023-03-31T08:03:57.300Z,10.32
2023-03-31T08:06:27.688Z,10.45
2023-03-31T08:08:55.848Z,10.60
2023-03-31T08:11:24.262Z,10.63
2023-03-31T08:13:52.689Z,10.55
2023-03-31T08:16:20.790Z,10.52
2023-03-31T08:18:48.890Z,10.69
2023-03-31T08:21:16.642Z,10.73
2023-03-31T08:23:46.079Z,10.81
2023-03-31T08:26:18.108Z,10.97
2023-03-31T08:28:48.748Z,11.02
2023-03-31T08:31:18.617Z,10.90
2023-03-31T08:33:47.606Z,10.85
2023-03-31T08:36:16.278Z,10.84
2023-03-31T08:38:47.264Z,10.96
2023-03-31T08:41:33.364Z,11.00
2023-03-31T08:44:06.105Z,10.82
2023-03-31T08:46:35.698Z,10.93
2023-03-31T08:49:05.686Z,11.09
2023-03-31T08:51:37.499Z,11.45
2023-03-31T08:54:10.487Z,11.79
2023-03-31T08:56:43.702Z,11.77
2023-03-31T08:59:22.032Z,11.72
2023-03-31T09:01:56.905Z,11.52
2023-03-31T09:04:47.198Z,11.47
2023-03-31T09:07:25.030Z,11.64
2023-03-31T09:10:04.055Z,11.72
2023-03-31T09:12:40.431Z,11.67
2023-03-31T09:15:15.908Z,11.46
2023-03-31T09:17:47.812Z,11.41
2023-03-31T09:20:20.803Z,11.50
2023-03-31T09:22:56.517Z,11.60
2023-03-31T09:25:28.819Z,11.65
2023-03-31T09:27:59.102Z,11.14
2023-03-31T09:30:30.305Z,10.71
2023-03-31T09:33:12.205Z,10.54
2023-03-31T09:35:40.434Z,10.48
2023-03-31T09:38:08.816Z,10.32
2023-03-31T09:40:38.732Z,10.17
2023-03-31T09:43:09.282Z,10.17
2023-03-31T09:45:37.622Z,10.01
2023-03-31T09:48:12.597Z,9.88
2023-03-31T09:50:46.828Z,9.80
2023-03-31T09:53:22.336Z,9.92
2023-03-31T09:55:56.906Z,10.17
2023-03-31T09:58:26.153Z,10.19
2023-03-31T10:01:01.790Z,10.53
2023-03-31T10:03:37.101Z,10.78
2023-03-31T10:06:11.620Z,10.90
2023-03-31T10:08:41.190Z,11.17
2023-03-31T10:11:12.823Z,11.78
2023-03-31T10:13:47.701Z,12.19
2023-03-31T10:16:22.618Z,12.45
2023-03-31T10:18:51.006Z,12.44
2023-03-31T10:21:23.571Z,12.36
2023-03-31T10:23:52.604Z,12.38
2023-03-31T10:26:24.812Z,12.44
2023-03-31T10:28:55.613Z,12.78
2023-03-31T10:31:27.290Z,12.73
2023-03-31T10:33:56.182Z,12.66
2023-03-31T10:36:27.890Z,12.40
2023-03-31T10:38:56.796Z,12.39
2023-03-31T10:41:29.115Z,12.52
2023-03-31T10:43:58.519Z,12.66
2023-03-31T10:46:42.492Z,12.74
2023-03-31T10:49:27.369Z,12.95
2023-03-31T10:51:57.582Z,12.97
2023-03-31T10:54:26.005Z,12.93
2023-03-31T10:56:57.518Z,13.07
2023-03-31T10:59:37.475Z,13.28
2023-03-31T11:02:39.066Z,13.36
2023-03-31T11:05:15.324Z,13.26
2023-03-31T11:07:56.365Z,13.18
2023-03-31T11:10:37.969Z,13.25
2023-03-31T11:13:13.947Z,13.28
2023-03-31T11:15:49.750Z,13.50
2023-03-31T11:18:42.733Z,13.50
2023-03-31T11:21:22.693Z,13.46
2023-03-31T11:23:58.190Z,13.81
2023-03-31T11:26:38.437Z,13.96
2023-03-31T11:29:19.310Z,14.06
2023-03-31T11:31:52.749Z,14.44
2023-03-31T11:34:41.491Z,14.58
2023-03-31T11:37:31.823Z,14.61
2023-03-31T11:40:17.469Z,14.58
2023-03-31T11:42:51.276Z,14.67
2023-03-31T11:45:24.882Z,14.78
2023-03-31T11:47:57.712Z,14.98
2023-03-31T11:50:29.199Z,14.93
2023-03-31T11:53:02.038Z,14.48
2023-03-31T11:55:32.929Z,14.50
2023-03-31T11:58:05.714Z,14.10
2023-03-31T12:00:39.845Z,14.11
2023-03-31T12:03:14.421Z,13.82
2023-03-31T12:05:47.098Z,14.09
2023-03-31T12:08:22.189Z,14.05
2023-03-31T12:10:55.750Z,14.29
2023-03-31T12:13:41.982Z,14.36
2023-03-31T12:16:15.956Z,14.63
2023-03-31T12:18:54.427Z,14.32
2023-03-31T12:21:24.622Z,14.25
2023-03-31T12:23:52.762Z,15.37
2023-03-31T12:26:36.897Z,15.26
2023-03-31T12:29:17.005Z,15.07
2023-03-31T12:31:47.869Z,14.75
2023-03-31T12:34:19.924Z,14.68
2023-03-31T12:37:00.424Z,14.93
2023-03-31T12:39:39.703Z,14.96
2023-03-31T12:42:31.130Z,14.90
2023-03-31T12:45:03.412Z,14.85
2023-03-31T12:47:47.392Z,14.62
2023-03-31T12:50:29.939Z,14.76
2023-03-31T12:53:06.727Z,14.37
2023-03-31T12:55:38.697Z,14.35
2023-03-31T12:58:38.144Z,14.34
2023-03-31T13:01:10.720Z,14.42
2023-03-31T13:04:03.753Z,14.35
2023-03-31T13:06:57.052Z,14.16
2023-03-31T13:09:47.144Z,14.38
2023-03-31T13:12:18.820Z,14.29
2023-03-31T13:14:49.136Z,13.94
2023-03-31T13:17:26.309Z,13.76
2023-03-31T13:19:57.525Z,13.87
2023-03-31T13:22:37.701Z,13.86
2023-03-31T13:25:28.310Z,13.43
2023-03-31T13:27:57.249Z,13.32
2023-03-31T13:30:46.477Z,13.36
2023-03-31T13:33:18.327Z,13.61
2023-03-31T13:35:51.105Z,13.71
2023-03-31T13:38:31.352Z,13.73
2023-03-31T13:41:26.757Z,13.80
2023-03-31T13:44:16.279Z,13.80
2023-03-31T13:46:52.253Z,13.87
2023-03-31T13:49:46.236Z,14.11
2023-03-31T13:52:22.093Z,14.03
2023-03-31T13:55:17.917Z,14.23
2023-03-31T13:58:24.852Z,14.33
2023-03-31T14:01:12.995Z,14.25
2023-03-31T14:03:58.006Z,14.02
2023-03-31T14:06:33.780Z,14.05
2023-03-31T14:09:06.955Z,14.30
2023-03-31T14:11:34.879Z,14.63
2023-03-31T14:14:06.562Z,14.78
2023-03-31T14:16:39.441Z,14.74
2023-03-31T14:19:24.997Z,14.61
2023-03-31T14:22:02.764Z,14.59
2023-03-31T14:24:40.783Z,14.80
2023-03-31T14:27:24.021Z,15.12
2023-03-31T14:30:00.963Z,14.93
2023-03-31T14:32:39.173Z,14.98
2023-03-31T14:35:26.589Z,14.84
2023-03-31T14:37:55.466Z,14.98
2023-03-31T14:40:26.374Z,14.58
2023-03-31T14:42:54.261Z,14.62
2023-03-31T14:45:25.326Z,14.71
2023-03-31T14:47:58.070Z,14.18
2023-03-31T14:50:31.305Z,13.80
2023-03-31T14:52:59.753Z,12.42
2023-03-31T14:55:44.245Z,11.63
2023-03-31T14:58:30.230Z,11.22
2023-03-31T15:00:58.194Z,11.17
2023-03-31T15:03:27.453Z,10.99
2023-03-31T15:06:00.085Z,10.68
2023-03-31T15:08:29.743Z,10.67
2023-03-31T15:11:11.842Z,10.66
2023-03-31T15:13:56.686Z,10.60
2023-03-31T15:16:32.898Z,10.96
2023-03-31T15:19:03.106Z,11.26
2023-03-31T15:21:33.467Z,11.73
2023-03-31T15:24:01.585Z,11.80
2023-03-31T15:26:41.296Z,11.97
2023-03-31T15:29:16.893Z,12.26
2023-03-31T15:31:46.714Z,12.06
2023-03-31T15:34:25.794Z,12.08
2023-03-31T15:36:56.841Z,12.42
2023-03-31T15:39:25.959Z,12.66
2023-03-31T15:41:56.547Z,12.74
2023-03-31T15:44:38.943Z,12.80
2023-03-31T15:47:21.343Z,13.03
2023-03-31T15:49:52.158Z,13.10
2023-03-31T15:52:34.344Z,13.14
2023-03-31T15:55:03.601Z,13.18
2023-03-31T15:57:37.056Z,13.08
2023-03-31T16:00:08.077Z,12.93
2023-03-31T16:02:46.787Z,13.12
2023-03-31T16:05:37.366Z,13.16
2023-03-31T16:08:17.633Z,13.01
2023-03-31T16:10:46.729Z,12.85
2023-03-31T16:13:23.300Z,12.70
2023-03-31T16:15:54.754Z,12.66
2023-03-31T16:18:30.025Z,12.70
2023-03-31T16:21:01.452Z,12.71
2023-03-31T16:23:32.076Z,12.68
2023-03-31T16:26:01.108Z,12.55
2023-03-31T16:28:32.603Z,12.48
2023-03-31T16:31:04.498Z,12.60
2023-03-31T16:33:53.772Z,12.77
2023-03-31T16:36:21.681Z,12.80
2023-03-31T16:38:52.940Z,12.51
2023-03-31T16:41:21.760Z,12.68
2023-03-31T16:43:54.206Z,12.41
2023-03-31T16:46:22.776Z,12.44
2023-03-31T16:48:51.455Z,12.35
2023-03-31T16:51:19.917Z,12.36
2023-03-31T16:53:49.762Z,12.57
2023-03-31T16:56:17.609Z,12.29
2023-03-31T16:58:45.963Z,12.22
2023-03-31T17:01:15.031Z,12.39
2023-03-31T17:03:43.334Z,12.45
2023-03-31T17:06:14.300Z,12.43
2023-03-31T17:08:42.060Z,12.39
2023-03-31T17:11:12.576Z,12.28
2023-03-31T17:13:41.568Z,12.30
2023-03-31T17:16:20.177Z,12.33
2023-03-31T17:18:56.252Z,12.53
2023-03-31T17:21:24.570Z,12.26
2023-03-31T17:23:52.703Z,12.30
2023-03-31T17:26:20.637Z,12.41
2023-03-31T17:28:48.446Z,12.37
2023-03-31T17:31:18.669Z,12.26
2023-03-31T17:33:47.416Z,12.12
2023-03-31T17:36:17.799Z,12.04
2023-03-31T17:38:46.228Z,12.01
2023-03-31T17:41:14.259Z,11.80
2023-03-31T17:43:55.906Z,11.79
2023-03-31T17:46:25.329Z,11.85
2023-03-31T17:48:56.826Z,11.80
2023-03-31T17:51:27.255Z,11.89
2023-03-31T17:53:57.695Z,11.81
2023-03-31T17:56:28.926Z,11.91
2023-03-31T17:58:57.471Z,11.86
2023-03-31T18:01:25.576Z,11.74
2023-03-31T18:03:56.009Z,11.73
2023-03-31T18:06:25.002Z,11.58
2023-03-31T18:08:54.711Z,11.63
2023-03-31T18:11:23.391Z,11.58
2023-03-31T18:13:51.415Z,11.54
2023-03-31T18:16:19.693Z,11.55
2023-03-31T18:18:48.258Z,11.50
2023-03-31T18:21:16.700Z,11.36
2023-03-31T18:23:45.168Z,11.44
2023-03-31T18:26:15.528Z,11.45
2023-03-31T18:28:43.992Z,11.36
2023-03-31T18:31:13.458Z,11.46
2023-03-31T18:33:42.088Z,11.30
2023-03-31T18:36:16.894Z,11.48
2023-03-31T18:38:45.374Z,11.37
2023-03-31T18:41:15.601Z,11.45
2023-03-31T18:43:44.756Z,11.42
2023-03-31T18:46:12.782Z,11.66
2023-03-31T18:48:41.987Z,11.84
2023-03-31T18:51:10.179Z,12.05
2023-03-31T18:53:38.579Z,11.91
2023-03-31T18:56:06.728Z,11.88
2023-03-31T18:58:37.275Z,11.91
2023-03-31T19:01:05.665Z,11.93
2023-03-31T19:03:33.548Z,11.93
2023-03-31T19:06:07.581Z,11.93
2023-03-31T19:08:35.372Z,12.08
2023-03-31T19:11:09.444Z,11.85
2023-03-31T19:13:38.898Z,11.80
2023-03-31T19:16:07.928Z,11.98
2023-03-31T19:18:36.477Z,11.77
2023-03-31T19:21:04.919Z,11.68
2023-03-31T19:23:33.068Z,11.76
2023-03-31T19:26:03.002Z,11.76
2023-03-31T19:28:31.604Z,11.63
2023-03-31T19:31:05.488Z,11.59
2023-03-31T19:33:33.696Z,11.51
2023-03-31T19:36:02.516Z,11.35
2023-03-31T19:38:32.605Z,11.76
2023-03-31T19:41:01.469Z,11.68
2023-03-31T19:43:30.879Z,11.59
2023-03-31T19:46:00.180Z,11.47
2023-03-31T19:48:34.154Z,11.22
2023-03-31T19:51:05.833Z,11.20
2023-03-31T19:53:34.138Z,10.94
2023-03-31T19:56:05.551Z,10.91
2023-03-31T19:58:35.853Z,10.75
2023-03-31T20:01:05.253Z,10.77
2023-03-31T20:03:35.274Z,10.99
2023-03-31T20:06:06.888Z,10.75
2023-03-31T20:08:35.043Z,10.82
2023-03-31T20:11:06.297Z,10.80
2023-03-31T20:13:35.858Z,10.72
2023-03-31T20:16:07.893Z,10.86
2023-03-31T20:18:38.737Z,10.80
2023-03-31T20:21:09.362Z,10.75
2023-03-31T20:23:38.407Z,10.94
2023-03-31T20:26:08.989Z,10.98
2023-03-31T20:28:38.495Z,10.77
2023-03-31T20:31:10.426Z,10.81
2023-03-31T20:33:40.698Z,10.89
2023-03-31T20:36:11.181Z,10.72
2023-03-31T20:38:40.056Z,10.73
2023-03-31T20:41:09.289Z,10.82
2023-03-31T20:43:37.807Z,10.77
2023-03-31T20:46:08.685Z,10.66
2023-03-31T20:48:40.488Z,10.75
2023-03-31T20:51:10.206Z,10.75
2023-03-31T20:53:42.072Z,11.06
2023-03-31T20:56:10.773Z,11.04
2023-03-31T20:58:43.245Z,10.99
2023-03-31T21:01:13.110Z,11.10
2023-03-31T21:03:43.689Z,11.00
2023-03-31T21:06:13.729Z,11.13
2023-03-31T21:08:45.345Z,11.18
2023-03-31T21:11:13.653Z,11.22
2023-03-31T21:13:41.595Z,11.16
2023-03-31T21:16:09.720Z,11.29
2023-03-31T21:18:38.218Z,11.21
2023-03-31T21:21:11.148Z,11.17
2023-03-31T21:23:40.378Z,11.20
2023-03-31T21:26:12.435Z,11.18
2023-03-31T21:28:40.441Z,11.16
2023-03-31T21:31:11.415Z,11.20
2023-03-31T21:33:41.845Z,11.09
2023-03-31T21:36:13.772Z,11.26
2023-03-31T21:38:42.461Z,11.10
2023-03-31T21:41:13.179Z,10.91
2023-03-31T21:43:42.126Z,10.86
2023-03-31T21:46:11.006Z,10.88
2023-03-31T21:48:39.081Z,10.85
2023-03-31T21:51:06.747Z,11.08
2023-03-31T21:53:36.025Z,11.12
2023-03-31T21:56:04.513Z,11.03
2023-03-31T21:58:32.857Z,11.15
2023-03-31T22:01:06.220Z,10.86
2023-03-31T22:03:34.999Z,10.77
2023-03-31T22:06:03.886Z,10.68
2023-03-31T22:08:32.172Z,10.96
2023-03-31T22:11:02.003Z,10.96
2023-03-31T22:13:31.003Z,11.05
2023-03-31T22:16:00.126Z,11.09
2023-03-31T22:18:29.116Z,10.95
2023-03-31T22:20:57.511Z,11.10
2023-03-31T22:23:27.517Z,11.10
2023-03-31T22:25:55.729Z,10.98
2023-03-31T22:28:24.819Z,10.92
2023-03-31T22:30:52.563Z,11.08
2023-03-31T22:33:20.270Z,11.00
2023-03-31T22:35:49.281Z,10.95
2023-03-31T22:38:17.607Z,10.98
2023-03-31T22:40:45.757Z,10.79
2023-03-31T22:43:14.235Z,10.85
2023-03-31T22:45:43.510Z,10.93
2023-03-31T22:48:11.322Z,10.98
2023-03-31T22:50:41.237Z,10.84
2023-03-31T22:53:09.856Z,10.84
2023-03-31T22:55:42.697Z,10.64
2023-03-31T22:58:11.318Z,10.77
2023-03-31T23:00:39.504Z,10.67
2023-03-31T23:03:09.590Z,10.66
2023-03-31T23:05:37.443Z,10.67
2023-03-31T23:08:05.595Z,10.77
2023-03-31T23:10:33.697Z,10.80
2023-03-31T23:13:01.665Z,10.67
2023-03-31T23:15:29.864Z,10.64
2023-03-31T23:17:57.833Z,10.80
2023-03-31T23:20:27.423Z,10.84
2023-03-31T23:22:56.747Z,10.77
2023-03-31T23:25:24.755Z,10.76
2023-03-31T23:27:52.863Z,10.85
2023-03-31T23:30:21.890Z,10.73
2023-03-31T23:32:50.037Z,10.64
2023-03-31T23:35:18.282Z,10.58
2023-03-31T23:37:47.924Z,10.60
2023-03-31T23:40:15.802Z,10.55
2023-03-31T23:42:43.830Z,10.60
2023-03-31T23:45:13.137Z,10.54
2023-03-31T23:47:42.452Z,10.48
2023-03-31T23:50:11.997Z,10.43
2023-03-31T23:52:40.358Z,10.49
2023-03-31T23:55:10.759Z,10.53
2023-03-31T23:57:39.047Z,10.39
